sensor_id;sensor_type;location;lat;lon;timestamp;pressure;altitude;pressure_sealevel;temperature;humidity
14882;BME280;7533;51.278;12.588;2023-01-15T00:03:57;98497.28;;;24.36;54.60
14882;BME280;7533;51.278;12.588;2023-01-15T00:09:01;98496.25;;;24.37;54.52
14882;BME280;7533;51.278;12.588;2023-01-15T00:14:05;98485.63;;;24.36;54.55
14882;BME280;7533;51.278;12.588;2023-01-15T00:19:09;98491.16;;;24.34;54.54
14882;BME280;7533;51.278;12.588;2023-01-15T00:24:13;98479.81;;;24.22;55.06
14882;BME280;7533;51.278;12.588;2023-01-15T00:29:34;98476.13;;;24.32;54.92
14882;BME280;7533;51.278;12.588;2023-01-15T00:34:37;98474.81;;;24.36;55.01
14882;BME280;7533;51.278;12.588;2023-01-15T00:39:40;98468.53;;;24.35;55.31
14882;BME280;7533;51.278;12.588;2023-01-15T00:44:44;98454.03;;;24.36;55.34
14882;BME280;7533;51.278;12.588;2023-01-15T00:49:48;98452.16;;;24.37;55.47
14882;BME280;7533;51.278;12.588;2023-01-15T00:54:52;98434.06;;;24.45;55.37
14882;BME280;7533;51.278;12.588;2023-01-15T00:59:56;98425.09;;;24.53;55.45
14882;BME280;7533;51.278;12.588;2023-01-15T01:04:59;98407.84;;;24.62;55.35
14882;BME280;7533;51.278;12.588;2023-01-15T01:10:04;98420.00;;;24.66;55.24
14882;BME280;7533;51.278;12.588;2023-01-15T01:15:10;98398.38;;;24.66;55.12
14882;BME280;7533;51.278;12.588;2023-01-15T01:20:14;98418.97;;;24.67;55.37
14882;BME280;7533;51.278;12.588;2023-01-15T01:25:18;98411.22;;;24.64;55.38
14882;BME280;7533;51.278;12.588;2023-01-15T01:30:22;98399.72;;;24.62;55.40
14882;BME280;7533;51.278;12.588;2023-01-15T01:35:25;98403.44;;;24.61;55.49
14882;BME280;7533;51.278;12.588;2023-01-15T01:40:28;98408.00;;;24.61;55.55
14882;BME280;7533;51.278;12.588;2023-01-15T01:45:33;98397.00;;;24.62;55.71
14882;BME280;7533;51.278;12.588;2023-01-15T01:50:36;98390.09;;;24.60;55.54
14882;BME280;7533;51.278;12.588;2023-01-15T01:55:41;98379.28;;;24.60;55.82
14882;BME280;7533;51.278;12.588;2023-01-15T02:00:47;98366.09;;;24.57;55.49
14882;BME280;7533;51.278;12.588;2023-01-15T02:05:55;98356.47;;;24.54;55.88
14882;BME280;7533;51.278;12.588;2023-01-15T02:11:01;98346.31;;;24.56;55.67
14882;BME280;7533;51.278;12.588;2023-01-15T02:16:15;98339.56;;;24.52;55.98
14882;BME280;7533;51.278;12.588;2023-01-15T02:21:25;98325.19;;;24.51;56.07
14882;BME280;7533;51.278;12.588;2023-01-15T02:27:04;98319.31;;;24.48;56.27
14882;BME280;7533;51.278;12.588;2023-01-15T02:32:12;98329.44;;;24.46;56.29
14882;BME280;7533;51.278;12.588;2023-01-15T02:37:21;98311.53;;;24.45;56.10
14882;BME280;7533;51.278;12.588;2023-01-15T02:42:29;98302.75;;;24.43;56.22
14882;BME280;7533;51.278;12.588;2023-01-15T02:47:34;98300.91;;;24.43;56.38
14882;BME280;7533;51.278;12.588;2023-01-15T02:52:43;98303.78;;;24.42;56.34
14882;BME280;7533;51.278;12.588;2023-01-15T02:57:54;98292.78;;;24.43;56.29
14882;BME280;7533;51.278;12.588;2023-01-15T03:03:05;98301.91;;;24.42;56.50
14882;BME280;7533;51.278;12.588;2023-01-15T03:08:10;98308.00;;;24.44;56.47
14882;BME280;7533;51.278;12.588;2023-01-15T03:13:20;98281.13;;;24.43;56.28
14882;BME280;7533;51.278;12.588;2023-01-15T03:18:35;98284.84;;;24.42;56.38
14882;BME280;7533;51.278;12.588;2023-01-15T03:23:43;98278.75;;;24.40;56.51
14882;BME280;7533;51.278;12.588;2023-01-15T03:28:50;98271.84;;;24.37;56.69
14882;BME280;7533;51.278;12.588;2023-01-15T03:33:53;98272.16;;;24.34;56.84
14882;BME280;7533;51.278;12.588;2023-01-15T03:38:58;98274.19;;;24.24;56.94
14882;BME280;7533;51.278;12.588;2023-01-15T03:44:26;98270.34;;;24.18;56.85
14882;BME280;7533;51.278;12.588;2023-01-15T03:49:49;98252.66;;;24.08;57.29
14882;BME280;7533;51.278;12.588;2023-01-15T03:55:21;98250.78;;;24.00;57.34
14882;BME280;7533;51.278;12.588;2023-01-15T04:00:37;98242.88;;;23.90;57.50
14882;BME280;7533;51.278;12.588;2023-01-15T04:05:43;98244.75;;;23.82;57.75
14882;BME280;7533;51.278;12.588;2023-01-15T04:10:51;98237.84;;;23.71;58.05
14882;BME280;7533;51.278;12.588;2023-01-15T04:15:57;98236.13;;;23.62;58.28
14882;BME280;7533;51.278;12.588;2023-01-15T04:21:00;98237.31;;;23.51;58.62
14882;BME280;7533;51.278;12.588;2023-01-15T04:26:07;98216.91;;;23.40;58.82
14882;BME280;7533;51.278;12.588;2023-01-15T04:31:12;98213.69;;;23.29;59.30
14882;BME280;7533;51.278;12.588;2023-01-15T04:36:15;98214.00;;;23.17;59.75
14882;BME280;7533;51.278;12.588;2023-01-15T04:41:18;98245.03;;;23.05;60.01
14882;BME280;7533;51.278;12.588;2023-01-15T04:46:40;98312.66;;;22.95;60.10
14882;BME280;7533;51.278;12.588;2023-01-15T04:51:44;98318.44;;;22.83;60.59
14882;BME280;7533;51.278;12.588;2023-01-15T04:56:49;98314.03;;;22.74;60.81
14882;BME280;7533;51.278;12.588;2023-01-15T05:01:54;98321.06;;;22.66;61.15
14882;BME280;7533;51.278;12.588;2023-01-15T05:07:08;98323.75;;;22.58;61.51
14882;BME280;7533;51.278;12.588;2023-01-15T05:12:11;98349.97;;;22.48;61.87
14882;BME280;7533;51.278;12.588;2023-01-15T05:17:15;98380.94;;;22.44;61.90
14882;BME280;7533;51.278;12.588;2023-01-15T05:22:18;98407.84;;;22.36;62.27
14882;BME280;7533;51.278;12.588;2023-01-15T05:27:21;98419.41;;;22.28;62.70
14882;BME280;7533;51.278;12.588;2023-01-15T05:32:25;98423.59;;;22.23;62.79
14882;BME280;7533;51.278;12.588;2023-01-15T05:37:29;98438.53;;;22.17;62.96
14882;BME280;7533;51.278;12.588;2023-01-15T05:42:32;98449.06;;;22.10;63.14
14882;BME280;7533;51.278;12.588;2023-01-15T05:47:36;98448.63;;;22.05;63.37
14882;BME280;7533;51.278;12.588;2023-01-15T05:52:39;98448.28;;;22.00;63.54
14882;BME280;7533;51.278;12.588;2023-01-15T05:57:41;98448.75;;;21.96;63.81
14882;BME280;7533;51.278;12.588;2023-01-15T06:02:48;98475.28;;;21.90;63.84
14882;BME280;7533;51.278;12.588;2023-01-15T06:07:51;98490.22;;;21.85;64.02
14882;BME280;7533;51.278;12.588;2023-01-15T06:12:54;98496.88;;;21.81;64.19
14882;BME280;7533;51.278;12.588;2023-01-15T06:17:58;98494.53;;;21.78;64.28
14882;BME280;7533;51.278;12.588;2023-01-15T06:23:01;98499.50;;;21.73;64.45
14882;BME280;7533;51.278;12.588;2023-01-15T06:28:06;98497.25;;;21.68;64.61
14882;BME280;7533;51.278;12.588;2023-01-15T06:33:10;98505.63;;;21.65;64.82
14882;BME280;7533;51.278;12.588;2023-01-15T06:38:13;98509.47;;;21.62;64.99
14882;BME280;7533;51.278;12.588;2023-01-15T06:43:16;98514.47;;;21.57;65.31
14882;BME280;7533;51.278;12.588;2023-01-15T06:48:37;98520.97;;;21.55;65.42
14882;BME280;7533;51.278;12.588;2023-01-15T06:53:40;98540.13;;;21.52;65.37
14882;BME280;7533;51.278;12.588;2023-01-15T06:58:43;98538.72;;;21.48;65.40
14882;BME280;7533;51.278;12.588;2023-01-15T07:03:47;98545.13;;;21.47;65.72
14882;BME280;7533;51.278;12.588;2023-01-15T07:08:51;98547.13;;;21.45;65.79
14882;BME280;7533;51.278;12.588;2023-01-15T07:13:54;98544.88;;;21.40;65.67
14882;BME280;7533;51.278;12.588;2023-01-15T07:19:08;98567.53;;;21.37;65.86
14882;BME280;7533;51.278;12.588;2023-01-15T07:24:11;98572.81;;;21.29;65.91
14882;BME280;7533;51.278;12.588;2023-01-15T07:29:14;98564.97;;;21.26;65.86
14882;BME280;7533;51.278;12.588;2023-01-15T07:34:18;98581.59;;;21.22;66.05
14882;BME280;7533;51.278;12.588;2023-01-15T07:39:21;98602.22;;;21.21;66.18
14882;BME280;7533;51.278;12.588;2023-01-15T07:44:24;98601.13;;;21.14;65.98
14882;BME280;7533;51.278;12.588;2023-01-15T07:49:47;98611.19;;;21.12;66.08
14882;BME280;7533;51.278;12.588;2023-01-15T07:54:50;98601.44;;;21.11;66.11
14882;BME280;7533;51.278;12.588;2023-01-15T07:59:53;98601.84;;;21.16;66.00
14882;BME280;7533;51.278;12.588;2023-01-15T08:04:57;98600.44;;;21.12;66.15
14882;BME280;7533;51.278;12.588;2023-01-15T08:10:00;98606.50;;;21.24;64.81
14882;BME280;7533;51.278;12.588;2023-01-15T08:15:04;98592.34;;;21.22;63.20
14882;BME280;7533;51.278;12.588;2023-01-15T08:20:20;98586.22;;;21.39;61.55
14882;BME280;7533;51.278;12.588;2023-01-15T08:25:24;98572.72;;;21.49;60.40
14882;BME280;7533;51.278;12.588;2023-01-15T08:30:27;98600.84;;;21.64;59.17
14882;BME280;7533;51.278;12.588;2023-01-15T08:35:31;98606.69;;;21.59;58.23
14882;BME280;7533;51.278;12.588;2023-01-15T08:40:36;98576.53;;;21.56;57.73
14882;BME280;7533;51.278;12.588;2023-01-15T08:46:00;98594.22;;;20.34;50.93
14882;BME280;7533;51.278;12.588;2023-01-15T08:51:06;98614.97;;;20.13;52.01
14882;BME280;7533;51.278;12.588;2023-01-15T08:56:11;98604.81;;;21.03;52.65
14882;BME280;7533;51.278;12.588;2023-01-15T09:01:14;98609.31;;;21.32;53.28
14882;BME280;7533;51.278;12.588;2023-01-15T09:06:19;98614.41;;;21.45;53.92
14882;BME280;7533;51.278;12.588;2023-01-15T09:11:21;98624.44;;;21.52;54.50
14882;BME280;7533;51.278;12.588;2023-01-15T09:16:24;98630.63;;;21.62;54.86
14882;BME280;7533;51.278;12.588;2023-01-15T09:21:29;98632.72;;;21.69;55.38
14882;BME280;7533;51.278;12.588;2023-01-15T09:26:33;98632.13;;;21.75;55.76
14882;BME280;7533;51.278;12.588;2023-01-15T09:31:37;98648.84;;;21.78;56.01
14882;BME280;7533;51.278;12.588;2023-01-15T09:36:41;98644.84;;;21.82;56.27
14882;BME280;7533;51.278;12.588;2023-01-15T09:41:54;98635.63;;;21.85;56.54
14882;BME280;7533;51.278;12.588;2023-01-15T09:47:12;98637.88;;;21.89;57.09
14882;BME280;7533;51.278;12.588;2023-01-15T09:52:24;98648.34;;;21.92;57.26
14882;BME280;7533;51.278;12.588;2023-01-15T09:57:31;98666.06;;;21.95;57.42
14882;BME280;7533;51.278;12.588;2023-01-15T10:02:39;98662.38;;;21.96;57.51
14882;BME280;7533;51.278;12.588;2023-01-15T10:07:52;98659.38;;;21.99;57.63
14882;BME280;7533;51.278;12.588;2023-01-15T10:13:01;98647.47;;;22.02;57.78
14882;BME280;7533;51.278;12.588;2023-01-15T10:18:13;98638.22;;;22.04;57.85
14882;BME280;7533;51.278;12.588;2023-01-15T10:23:32;98659.66;;;22.06;57.84
14882;BME280;7533;51.278;12.588;2023-01-15T10:34:29;98681.88;;;22.08;58.13
14882;BME280;7533;51.278;12.588;2023-01-15T10:39:44;98688.84;;;22.10;58.29
14882;BME280;7533;51.278;12.588;2023-01-15T10:44:58;98686.03;;;22.12;58.58
14882;BME280;7533;51.278;12.588;2023-01-15T10:50:05;98681.47;;;22.12;58.75
14882;BME280;7533;51.278;12.588;2023-01-15T10:55:21;98682.31;;;22.13;58.67
14882;BME280;7533;51.278;12.588;2023-01-15T11:00:25;98691.09;;;22.15;58.73
14882;BME280;7533;51.278;12.588;2023-01-15T11:05:29;98680.88;;;22.18;58.96
14882;BME280;7533;51.278;12.588;2023-01-15T11:10:36;98685.94;;;22.22;58.94
14882;BME280;7533;51.278;12.588;2023-01-15T11:15:44;98670.63;;;22.22;59.17
14882;BME280;7533;51.278;12.588;2023-01-15T11:21:10;98662.81;;;22.29;59.13
14882;BME280;7533;51.278;12.588;2023-01-15T11:26:20;98660.50;;;22.34;58.90
14882;BME280;7533;51.278;12.588;2023-01-15T11:31:34;98668.44;;;22.35;58.90
14882;BME280;7533;51.278;12.588;2023-01-15T11:36:38;98662.59;;;22.40;58.79
14882;BME280;7533;51.278;12.588;2023-01-15T11:41:42;98662.44;;;22.41;58.97
14882;BME280;7533;51.278;12.588;2023-01-15T11:47:03;98672.78;;;22.46;59.08
14882;BME280;7533;51.278;12.588;2023-01-15T11:52:29;98670.59;;;22.50;59.45
14882;BME280;7533;51.278;12.588;2023-01-15T11:57:35;98668.91;;;22.49;59.83
14882;BME280;7533;51.278;12.588;2023-01-15T12:02:40;98674.34;;;22.39;59.70
14882;BME280;7533;51.278;12.588;2023-01-15T12:07:47;98681.06;;;22.35;59.35
14882;BME280;7533;51.278;12.588;2023-01-15T12:13:02;98679.25;;;22.26;59.09
14882;BME280;7533;51.278;12.588;2023-01-15T12:23:50;98677.34;;;22.08;57.91
14882;BME280;7533;51.278;12.588;2023-01-15T12:29:05;98674.09;;;22.05;57.30
14882;BME280;7533;51.278;12.588;2023-01-15T12:34:16;98680.22;;;21.97;56.61
14882;BME280;7533;51.278;12.588;2023-01-15T12:39:25;98661.81;;;21.92;55.73
14882;BME280;7533;51.278;12.588;2023-01-15T12:44:38;98652.00;;;22.01;55.39
14882;BME280;7533;51.278;12.588;2023-01-15T12:50:17;98668.56;;;22.06;55.23
14882;BME280;7533;51.278;12.588;2023-01-15T12:55:25;98657.63;;;22.08;54.94
14882;BME280;7533;51.278;12.588;2023-01-15T13:00:35;98683.56;;;22.09;55.03
14882;BME280;7533;51.278;12.588;2023-01-15T13:05:45;98644.00;;;22.09;54.96
14882;BME280;7533;51.278;12.588;2023-01-15T13:10:49;98633.09;;;22.11;54.94
14882;BME280;7533;51.278;12.588;2023-01-15T13:16:06;98660.03;;;22.11;55.10
14882;BME280;7533;51.278;12.588;2023-01-15T13:21:15;98688.72;;;22.12;55.08
14882;BME280;7533;51.278;12.588;2023-01-15T13:26:40;98669.00;;;22.11;55.11
14882;BME280;7533;51.278;12.588;2023-01-15T13:31:57;98682.47;;;22.11;55.21
14882;BME280;7533;51.278;12.588;2023-01-15T13:37:19;98682.59;;;22.10;55.34
14882;BME280;7533;51.278;12.588;2023-01-15T13:42:24;98698.78;;;22.10;55.40
14882;BME280;7533;51.278;12.588;2023-01-15T13:47:37;98704.16;;;22.10;55.61
14882;BME280;7533;51.278;12.588;2023-01-15T13:52:44;98719.31;;;22.11;55.77
14882;BME280;7533;51.278;12.588;2023-01-15T13:57:47;98723.88;;;22.10;55.72
14882;BME280;7533;51.278;12.588;2023-01-15T14:02:53;98718.47;;;22.10;56.05
14882;BME280;7533;51.278;12.588;2023-01-15T14:07:56;98736.38;;;22.11;56.14
14882;BME280;7533;51.278;12.588;2023-01-15T14:18:42;98784.28;;;22.17;56.27
14882;BME280;7533;51.278;12.588;2023-01-15T14:24:11;98786.97;;;22.17;56.28
14882;BME280;7533;51.278;12.588;2023-01-15T14:29:39;98789.94;;;22.14;56.54
14882;BME280;7533;51.278;12.588;2023-01-15T14:34:55;98792.78;;;22.13;56.77
14882;BME280;7533;51.278;12.588;2023-01-15T14:40:01;98815.34;;;22.12;56.75
14882;BME280;7533;51.278;12.588;2023-01-15T14:45:06;98812.19;;;22.16;56.64
14882;BME280;7533;51.278;12.588;2023-01-15T14:50:39;98806.81;;;22.16;56.75
14882;BME280;7533;51.278;12.588;2023-01-15T14:55:46;98817.56;;;22.16;56.72
14882;BME280;7533;51.278;12.588;2023-01-15T15:00:52;98817.31;;;22.20;56.96
14882;BME280;7533;51.278;12.588;2023-01-15T15:05:58;98824.38;;;22.21;56.87
14882;BME280;7533;51.278;12.588;2023-01-15T15:11:03;98821.84;;;22.19;56.78
14882;BME280;7533;51.278;12.588;2023-01-15T15:21:37;98817.03;;;22.13;57.03
14882;BME280;7533;51.278;12.588;2023-01-15T15:26:41;98821.72;;;22.11;57.28
14882;BME280;7533;51.278;12.588;2023-01-15T15:31:47;98820.28;;;22.07;57.42
14882;BME280;7533;51.278;12.588;2023-01-15T15:36:56;98829.78;;;22.11;57.68
14882;BME280;7533;51.278;12.588;2023-01-15T15:42:05;98839.16;;;22.07;57.79
14882;BME280;7533;51.278;12.588;2023-01-15T15:47:36;98829.91;;;22.09;58.01
14882;BME280;7533;51.278;12.588;2023-01-15T15:52:58;98832.47;;;22.11;57.94
14882;BME280;7533;51.278;12.588;2023-01-15T15:58:06;98815.19;;;22.13;58.13
14882;BME280;7533;51.278;12.588;2023-01-15T16:03:18;98804.97;;;22.17;57.93
14882;BME280;7533;51.278;12.588;2023-01-15T16:08:23;98802.81;;;22.21;58.11
14882;BME280;7533;51.278;12.588;2023-01-15T16:13:28;98804.81;;;22.28;57.86
14882;BME280;7533;51.278;12.588;2023-01-15T16:18:35;98816.53;;;22.37;57.77
14882;BME280;7533;51.278;12.588;2023-01-15T16:23:54;98823.19;;;22.42;57.82
14882;BME280;7533;51.278;12.588;2023-01-15T16:28:59;98834.63;;;22.54;57.66
14882;BME280;7533;51.278;12.588;2023-01-15T16:34:04;98850.44;;;22.67;57.46
14882;BME280;7533;51.278;12.588;2023-01-15T16:39:18;98864.50;;;22.70;57.32
14882;BME280;7533;51.278;12.588;2023-01-15T16:44:26;98874.41;;;22.80;57.16
14882;BME280;7533;51.278;12.588;2023-01-15T16:49:33;98887.00;;;22.89;57.00
14882;BME280;7533;51.278;12.588;2023-01-15T16:54:45;98873.78;;;22.95;56.80
14882;BME280;7533;51.278;12.588;2023-01-15T16:59:59;98869.31;;;23.04;56.62
14882;BME280;7533;51.278;12.588;2023-01-15T17:05:21;98864.03;;;23.12;56.19
14882;BME280;7533;51.278;12.588;2023-01-15T17:10:27;98844.22;;;23.21;55.72
14882;BME280;7533;51.278;12.588;2023-01-15T17:15:37;98858.94;;;23.27;55.50
14882;BME280;7533;51.278;12.588;2023-01-15T17:20:40;98860.19;;;23.33;55.05
14882;BME280;7533;51.278;12.588;2023-01-15T17:25:46;98860.41;;;23.39;54.82
14882;BME280;7533;51.278;12.588;2023-01-15T17:30:50;98872.06;;;23.40;54.54
14882;BME280;7533;51.278;12.588;2023-01-15T17:35:54;98884.66;;;23.49;54.39
14882;BME280;7533;51.278;12.588;2023-01-15T17:41:00;98892.31;;;23.54;54.09
14882;BME280;7533;51.278;12.588;2023-01-15T17:46:06;98885.75;;;23.56;53.97
14882;BME280;7533;51.278;12.588;2023-01-15T17:51:11;98867.53;;;23.58;53.68
14882;BME280;7533;51.278;12.588;2023-01-15T17:56:15;98876.16;;;23.62;53.48
14882;BME280;7533;51.278;12.588;2023-01-15T18:01:37;98886.03;;;23.63;53.35
14882;BME280;7533;51.278;12.588;2023-01-15T18:06:59;98885.41;;;23.69;53.38
14882;BME280;7533;51.278;12.588;2023-01-15T18:12:04;98884.56;;;23.68;53.34
14882;BME280;7533;51.278;12.588;2023-01-15T18:17:08;98873.75;;;23.68;53.20
14882;BME280;7533;51.278;12.588;2023-01-15T18:22:12;98878.16;;;23.69;52.92
14882;BME280;7533;51.278;12.588;2023-01-15T18:27:17;98864.31;;;23.72;52.70
14882;BME280;7533;51.278;12.588;2023-01-15T18:32:20;98874.81;;;23.75;52.63
14882;BME280;7533;51.278;12.588;2023-01-15T18:37:23;98860.00;;;23.80;52.75
14882;BME280;7533;51.278;12.588;2023-01-15T18:42:27;98870.50;;;23.83;52.87
14882;BME280;7533;51.278;12.588;2023-01-15T18:47:48;98862.22;;;23.84;52.69
14882;BME280;7533;51.278;12.588;2023-01-15T18:52:50;98870.19;;;23.86;52.83
14882;BME280;7533;51.278;12.588;2023-01-15T18:57:55;98868.34;;;23.86;52.83
14882;BME280;7533;51.278;12.588;2023-01-15T19:02:58;98862.47;;;23.91;52.73
14882;BME280;7533;51.278;12.588;2023-01-15T19:08:01;98856.34;;;23.89;52.83
14882;BME280;7533;51.278;12.588;2023-01-15T19:13:05;98855.44;;;23.80;53.09
14882;BME280;7533;51.278;12.588;2023-01-15T19:18:09;98854.72;;;23.96;52.61
14882;BME280;7533;51.278;12.588;2023-01-15T19:23:29;98848.31;;;23.97;52.83
14882;BME280;7533;51.278;12.588;2023-01-15T19:28:33;98840.06;;;23.98;52.66
14882;BME280;7533;51.278;12.588;2023-01-15T19:33:36;98838.88;;;24.01;52.64
14882;BME280;7533;51.278;12.588;2023-01-15T19:38:39;98848.00;;;24.00;52.62
14882;BME280;7533;51.278;12.588;2023-01-15T19:43:43;98847.31;;;23.98;52.64
14882;BME280;7533;51.278;12.588;2023-01-15T19:49:09;98835.69;;;24.06;52.51
14882;BME280;7533;51.278;12.588;2023-01-15T19:54:34;98831.16;;;24.06;52.55
14882;BME280;7533;51.278;12.588;2023-01-15T19:59:55;98824.06;;;24.05;52.21
14882;BME280;7533;51.278;12.588;2023-01-15T20:04:58;98821.03;;;24.08;52.47
14882;BME280;7533;51.278;12.588;2023-01-15T20:10:02;98825.75;;;24.06;52.33
14882;BME280;7533;51.278;12.588;2023-01-15T20:15:07;98821.88;;;24.09;52.14
14882;BME280;7533;51.278;12.588;2023-01-15T20:20:11;98834.38;;;24.10;52.16
14882;BME280;7533;51.278;12.588;2023-01-15T20:25:14;98830.50;;;24.12;52.27
14882;BME280;7533;51.278;12.588;2023-01-15T20:30:19;98832.22;;;24.13;52.01
14882;BME280;7533;51.278;12.588;2023-01-15T20:35:25;98824.97;;;24.14;52.07
14882;BME280;7533;51.278;12.588;2023-01-15T20:40:29;98824.63;;;24.17;51.98
14882;BME280;7533;51.278;12.588;2023-01-15T20:45:33;98815.00;;;24.14;52.22
14882;BME280;7533;51.278;12.588;2023-01-15T20:50:38;98829.03;;;24.18;52.16
14882;BME280;7533;51.278;12.588;2023-01-15T20:55:41;98820.06;;;24.17;52.10
14882;BME280;7533;51.278;12.588;2023-01-15T21:01:02;98814.34;;;24.20;51.98
14882;BME280;7533;51.278;12.588;2023-01-15T21:06:07;98808.63;;;24.23;52.08
14882;BME280;7533;51.278;12.588;2023-01-15T21:11:10;98820.59;;;24.21;52.11
14882;BME280;7533;51.278;12.588;2023-01-15T21:16:15;98818.75;;;24.21;51.94
14882;BME280;7533;51.278;12.588;2023-01-15T21:21:18;98822.31;;;24.22;51.90
14882;BME280;7533;51.278;12.588;2023-01-15T21:26:22;98821.28;;;24.23;52.05
14882;BME280;7533;51.278;12.588;2023-01-15T21:31:27;98825.84;;;24.22;51.98
14882;BME280;7533;51.278;12.588;2023-01-15T21:36:30;98822.84;;;24.25;51.98
14882;BME280;7533;51.278;12.588;2023-01-15T21:41:33;98828.25;;;24.25;52.30
14882;BME280;7533;51.278;12.588;2023-01-15T21:46:55;98832.63;;;24.26;51.94
14882;BME280;7533;51.278;12.588;2023-01-15T21:51:58;98847.69;;;24.29;52.37
14882;BME280;7533;51.278;12.588;2023-01-15T21:57:01;98855.78;;;24.29;52.33
14882;BME280;7533;51.278;12.588;2023-01-15T22:02:09;98845.81;;;24.29;52.39
14882;BME280;7533;51.278;12.588;2023-01-15T22:07:16;98838.41;;;24.32;52.69
14882;BME280;7533;51.278;12.588;2023-01-15T22:12:19;98836.72;;;24.31;52.63
14882;BME280;7533;51.278;12.588;2023-01-15T22:17:23;98836.56;;;24.32;52.84
14882;BME280;7533;51.278;12.588;2023-01-15T22:22:26;98844.69;;;24.32;52.93
14882;BME280;7533;51.278;12.588;2023-01-15T22:27:34;98846.69;;;24.30;52.83
14882;BME280;7533;51.278;12.588;2023-01-15T22:32:42;98839.09;;;24.34;52.74
14882;BME280;7533;51.278;12.588;2023-01-15T22:37:45;98846.22;;;24.35;52.86
14882;BME280;7533;51.278;12.588;2023-01-15T22:42:48;98836.41;;;24.34;53.16
14882;BME280;7533;51.278;12.588;2023-01-15T22:47:53;98831.81;;;24.34;52.79
14882;BME280;7533;51.278;12.588;2023-01-15T22:52:56;98822.88;;;24.34;53.10
14882;BME280;7533;51.278;12.588;2023-01-15T22:57:59;98815.78;;;24.33;53.11
14882;BME280;7533;51.278;12.588;2023-01-15T23:03:03;98818.19;;;24.36;53.14
14882;BME280;7533;51.278;12.588;2023-01-15T23:08:06;98812.06;;;24.34;53.05
14882;BME280;7533;51.278;12.588;2023-01-15T23:13:09;98802.66;;;24.38;53.64
14882;BME280;7533;51.278;12.588;2023-01-15T23:18:13;98798.00;;;24.56;53.24
14882;BME280;7533;51.278;12.588;2023-01-15T23:23:16;98794.69;;;24.70;53.06
14882;BME280;7533;51.278;12.588;2023-01-15T23:28:19;98793.56;;;24.81;52.72
14882;BME280;7533;51.278;12.588;2023-01-15T23:33:23;98786.13;;;24.91;52.72
14882;BME280;7533;51.278;12.588;2023-01-15T23:38:27;98782.94;;;25.04;52.30
14882;BME280;7533;51.278;12.588;2023-01-15T23:43:30;98778.59;;;25.11;52.62
14882;BME280;7533;51.278;12.588;2023-01-15T23:48:51;98775.75;;;25.21;52.32
14882;BME280;7533;51.278;12.588;2023-01-15T23:53:54;98778.78;;;25.26;52.40
14882;BME280;7533;51.278;12.588;2023-01-15T23:58:58;98776.44;;;25.31;52.37
